Aviation Digital Data Service (ADDS)

Output produced by METARs form (1645 UTC 20 January 2019)
found at http://www.aviationweather.gov/metar/data/
 
VTBD 201630Z 29004KT 250V330 9999 FEW040 29/21 Q1012 NOSIG
TAF VTBD 201100Z 2012/2118 07005KT 9000 FEW040 
     BECMG 2018/2020 36005KT 
     BECMG 2102/2104 06005KT
       
VTUO 201600Z AUTO 09003KT ////NDV // ////// 25/18 Q1014 A2994
TAF VTUO 201100Z 2012/2112 04008KT 9000 FEW030 
     BECMG 2017/2019 8000 
     BECMG 2100/2102 9000
       
VTCC 201630Z 12003KT 9999 FEW035 20/17 Q1016 NOSIG
TAF VTCC 201100Z 2012/2118 34005KT 9999 FEW035
       
VTCT 201600Z 00000KT CAVOK 18/18 Q1015 NOSIG
TAF VTCT 201100Z 2012/2118 32005KT 9999 FEW030
       
VTSE 201100Z VRB02KT 9999 FEW020 28/24 Q1010 NOSIG
TAF VTSE 201100Z 2012/2112 10005KT 9000 FEW020 
     TEMPO 2020/2102 5000 -RA BR SCT015 BKN100
       
VTSS 201630Z 00000KT 9999 FEW020 25/23 Q1013 NOSIG
TAF VTSS 201100Z 2012/2112 05008KT 9999 FEW020 SCT100 
     TEMPO 2018/2024 5000 RA SCT015 BKN100
       
VTPH 201100Z 00000KT 6000 NSC 29/22 Q1010 NOSIG
TAF VTPH 201100Z 2012/2112 00000KT 7000 FEW030 
     BECMG 2101/2103 02008KT
       
VTUK 201600Z 05004KT 9000 FEW035 24/16 Q1013
TAF VTUK 201100Z 2012/2112 08004KT 8000 FEW030 SCT100 
     BECMG 2021/2023 VRB02KT 5000 BR NSC 
     BECMG 2100/2102 06008KT 9000 NSW
       
VTSG 201600Z AUTO 02001KT 8000 ////// 23/22 Q1014 A2994
TAF VTSG 201100Z 2012/2112 10009KT 9999 SCT020 
     BECMG 2014/2016 03004KT 9000 
     BECMG 2104/2106 10008KT 9999
       
VTCL 201200Z 00000KT CAVOK 23/17 Q1011 NOSIG
TAF VTCL 201100Z 2012/2112 30005KT 9999 FEW030
       
VTUL 201200Z 00000KT 9999 FEW030 23/18 Q1012 NOSIG
TAF VTUL 201100Z 2012/2112 04003KT 8000 SCT030 
     BECMG 2021/2023 VRB02KT 5000 BR NSC 
     BECMG 2100/2102 04006KT 9999 NSW SCT030 SCT100
       
VTCH 201200Z 12006KT 9999 FEW025 23/18 Q1011
TAF VTCH 201100Z 2012/2112 32005KT 9999 FEW030
       
VTPM 201100Z 28005KT 9999 FEW025 31/16 Q1011 NOSIG
TAF VTPM 201100Z 2012/2112 26005KT 9999 FEW030
       
VTUW 201300Z 11009KT CAVOK 25/17 Q1013 NOSIG
TAF VTUW 201100Z 2012/2112 10004KT 8000 FEW030 
     BECMG 2021/2023 VRB02KT 5000 BR NSC 
     BECMG 2100/2102 08008KT CAVOK NSW
       
VTUQ 201600Z AUTO 00000KT ////NDV ////// 22/16 Q1014 A2994
TAF VTUQ 201100Z 2012/2112 03007KT 9000 SCT025 
     BECMG 2017/2019 8000 FEW030 
     BECMG 2100/2102 9000
       
VTSF 201300Z 15001KT 9999 FEW018 26/23 Q1012 NOSIG
TAF VTSF 201100Z 2012/2112 12005KT 9999 FEW020 SCT100 
     PROB30 
     TEMPO 2012/2016 5000 RA SCT015 BKN100
       
VTCN 201200Z 34003KT CAVOK 22/17 Q1011 NOSIG
TAF VTCN 201100Z 2012/2112 02005KT 9999 FEW030
       
VTSC 201500Z 09005KT 060V140 9999 SCT020 27/24 Q1013 NOSIG
TAF VTSC 201100Z 2012/2112 07005KT 9999 FEW020 SCT100 
     TEMPO 2018/2024 5000 RA SCT015 BKN100
       
VTSK 201100Z 05010KT 9999 FEW020 SCT300 29/22 Q1009
TAF VTSK 201100Z 2012/2112 09005KT 9999 FEW020 SCT100 
     TEMPO 2018/2024 5000 RA SCT015 BKN100
       
VTPB 201100Z VRB02KT 9000 FEW030 30/15 Q1010 NOSIG
TAF VTPB 201100Z 2012/2112 34005KT 9999 FEW030
       
VTPP 201400Z 00000KT 8000 FEW005 25/18 Q1011 NOSIG
TAF VTPP 201100Z 2012/2112 26005KT 9999 FEW030
       
TAF VTCP 201100Z 2012/2112 26005KT 9999 FEW030
       
VTSP 201630Z VRB02KT 8000 SCT020 25/23 Q1015 NOSIG
TAF VTSP 201100Z 2012/2118 VRB04KT 9000 FEW020 
     BECMG 2102/2104 08008KT 9999 
     BECMG 2108/2110 28007KT 
     BECMG 2111/2113 VRB04KT 9000
       
VTSR 201500Z VRB03KT 9999 FEW025 26/23 Q1012 NOSIG
TAF COR VTSR 201155Z 2012/2112 VRB04KT 9999 BKN025 
     TEMPO 2012/2014 VRB10G20KT 5000 TSRA FEW018TCU SCT020 BKN100
       
VTUV 201600Z AUTO 06007KT //// // 24/17 Q1014 A2995
TAF VTUV 201100Z 2012/2112 07008KT 9999 FEW030 
     BECMG 2017/2019 8000 
     BECMG 2100/2102 9000
       
VTUI 201400Z 12009KT CAVOK 25/18 Q1014 NOSIG
TAF VTUI 201100Z 2012/2112 10004KT 8000 FEW030 
     BECMG 2021/2023 VRB02KT 5000 BR NSC 
     BECMG 2100/2102 08008KT CAVOK NSW
       
VTSM 201500Z 15003KT 9999 FEW020 28/26 Q1013 NOSIG
TAF VTSM 201100Z 2012/2112 14005KT 9000 FEW020 
     PROB30 
     TEMPO 2012/2016 5000 RA SCT015 BKN100
       
VTSH 201100Z 08010KT 8000 FEW020 28/23 Q1009 NOSIG
TAF VTSH 201100Z 2012/2112 08008KT 9999 FEW020 SCT100 
     TEMPO 2018/2024 5000 RA SCT015 BKN100
       
TAF VTPO 201100Z 2012/2112 30005KT 9999 FEW030
       
VTSB 201600Z 00000KT 8000 FEW020 25/23 Q1013
TAF VTSB 201100Z 2012/2112 03010KT 9000 FEW020 
     BECMG 2020/2022 5000 BR 
     BECMG 2101/2103 9999 NSW
       
TAF VTPT 201100Z 2012/2112 24005KT 7000 FEW030
       
VTST 201300Z 03004KT 9999 FEW020 26/22 Q1010 NOSIG
TAF VTST 201100Z 2012/2112 07012KT 9999 FEW020 
     BECMG 2014/2016 04006KT 9000 
     BECMG 2101/2103 07011KT 9999
       
VTBU 201630Z 36003KT 3000 BR FEW020 25/21 Q1012 NOSIG
TAF VTBU 201100Z 2012/2112 01004KT 4000 BR FEW020 
     BECMG 2101/2103 17008KT 6000 
     TEMPO 2106/2110 FEW020CB 
     BECMG 2110/2112 35003KT 4000 BR
       
VTUU 201600Z 03009KT 8000 NSC 24/18 Q1013 NOSIG
TAF VTUU 201100Z 2012/2112 03008KT 9000 NSC 
     BECMG 2017/2019 8000 
     BECMG 2100/2102 9000
       
VTUD 201500Z 00000KT 9999 FEW045 23/16 Q1013 NOSIG
TAF VTUD 201100Z 2012/2112 06004KT 9000 NSC 
     BECMG 2021/2023 VRB02KT 5000 BR 
     BECMG 2100/2102 06008KT CAVOK NSW